createdAt,value
2022-10-26T00:01:05.660Z,10.70
2022-10-26T00:02:57.686Z,10.57
2022-10-26T00:04:48.387Z,10.93
2022-10-26T00:06:39.152Z,11.13
2022-10-26T00:08:29.708Z,9.75
2022-10-26T00:10:20.049Z,9.38
2022-10-26T00:12:10.774Z,12.52
2022-10-26T00:14:01.064Z,11.85
2022-10-26T00:15:51.703Z,10.90
2022-10-26T00:17:42.029Z,10.93
2022-10-26T00:19:34.537Z,10.25
2022-10-26T00:21:26.455Z,10.52
2022-10-26T00:23:17.396Z,9.70
2022-10-26T00:25:08.773Z,9.60
2022-10-26T00:26:59.396Z,11.10
2022-10-26T00:28:52.928Z,10.48
2022-10-26T00:30:43.537Z,9.88
2022-10-26T00:32:34.290Z,11.13
2022-10-26T00:34:24.963Z,10.25
2022-10-26T00:36:16.815Z,9.55
2022-10-26T00:38:07.682Z,9.32
2022-10-26T00:39:58.023Z,9.60
2022-10-26T00:41:48.318Z,9.50
2022-10-26T00:43:39.185Z,11.48
2022-10-26T00:45:30.776Z,9.82
2022-10-26T00:47:31.628Z,9.07
2022-10-26T00:49:22.110Z,9.65
2022-10-26T00:51:20.007Z,9.20
2022-10-26T00:53:11.052Z,8.90
2022-10-26T00:55:01.700Z,9.25
2022-10-26T00:56:54.387Z,8.95
2022-10-26T00:58:45.329Z,8.52
2022-10-26T01:00:36.048Z,7.93
2022-10-26T01:02:26.465Z,9.05
2022-10-26T01:04:17.268Z,9.60
2022-10-26T01:06:08.591Z,8.35
2022-10-26T01:08:00.617Z,9.23
2022-10-26T01:09:51.283Z,8.43
2022-10-26T01:11:41.821Z,8.18
2022-10-26T01:13:34.255Z,8.35
2022-10-26T01:17:25.389Z,7.72
2022-10-26T01:19:44.926Z,8.95
2022-10-26T01:21:41.407Z,8.60
2022-10-26T01:23:38.027Z,7.78
2022-10-26T01:25:41.422Z,8.43
2022-10-26T01:27:34.548Z,8.00
2022-10-26T01:29:43.587Z,8.07
2022-10-26T01:31:40.834Z,8.50
2022-10-26T01:33:34.806Z,9.40
2022-10-26T01:35:29.013Z,8.85
2022-10-26T01:37:22.474Z,9.00
2022-10-26T01:39:16.443Z,8.70
2022-10-26T01:41:13.345Z,8.90
2022-10-26T01:43:07.498Z,8.00
2022-10-26T01:45:01.728Z,8.52
2022-10-26T01:46:54.756Z,9.73
2022-10-26T01:48:45.970Z,7.78
2022-10-26T01:50:36.739Z,8.52
2022-10-26T01:52:27.868Z,8.57
2022-10-26T01:54:18.466Z,8.55
2022-10-26T01:56:12.107Z,8.15
2022-10-26T01:58:06.437Z,7.35
2022-10-26T02:00:05.132Z,8.48
2022-10-26T02:02:39.684Z,9.18
2022-10-26T02:04:37.874Z,8.30
2022-10-26T02:06:34.446Z,8.00
2022-10-26T02:08:39.086Z,8.73
2022-10-26T02:10:35.941Z,8.18
2022-10-26T02:12:33.471Z,8.18
2022-10-26T02:14:30.385Z,8.98
2022-10-26T02:16:24.405Z,8.48
2022-10-26T02:18:24.783Z,8.60
2022-10-26T02:20:18.457Z,8.30
2022-10-26T02:22:14.809Z,8.10
2022-10-26T02:26:00.047Z,8.00
2022-10-26T02:27:53.986Z,7.60
2022-10-26T02:29:44.748Z,8.85
2022-10-26T02:31:35.554Z,8.75
2022-10-26T02:33:30.910Z,8.23
2022-10-26T02:35:25.496Z,8.23
2022-10-26T02:37:17.954Z,7.85
2022-10-26T02:39:08.490Z,8.00
2022-10-26T02:41:00.237Z,7.20
2022-10-26T02:42:52.260Z,8.13
2022-10-26T02:46:33.693Z,8.07
2022-10-26T02:48:24.602Z,8.00
2022-10-26T02:50:16.488Z,7.82
2022-10-26T02:52:10.889Z,8.68
2022-10-26T02:54:08.289Z,8.88
2022-10-26T02:56:01.095Z,9.27
2022-10-26T02:57:54.505Z,8.55
2022-10-26T02:59:46.850Z,8.80
2022-10-26T03:01:37.561Z,8.52
2022-10-26T03:03:30.654Z,9.27
2022-10-26T03:05:25.213Z,9.15
2022-10-26T03:07:20.938Z,8.48
2022-10-26T03:09:11.462Z,8.52
2022-10-26T03:11:01.821Z,8.95
2022-10-26T03:12:52.509Z,9.20
2022-10-26T03:14:43.249Z,8.48
2022-10-26T03:16:33.386Z,9.43
2022-10-26T03:18:23.966Z,8.80
2022-10-26T03:20:14.363Z,9.73
2022-10-26T03:22:06.272Z,8.90
2022-10-26T03:23:56.952Z,9.93
2022-10-26T03:25:47.637Z,9.27
2022-10-26T03:27:38.117Z,9.27
2022-10-26T03:29:28.612Z,9.55
2022-10-26T03:31:19.252Z,9.15
2022-10-26T03:33:09.748Z,9.40
2022-10-26T03:35:00.207Z,8.35
2022-10-26T03:36:50.503Z,9.10
2022-10-26T03:38:42.220Z,8.35
2022-10-26T03:40:32.880Z,9.02
2022-10-26T03:42:23.394Z,9.55
2022-10-26T03:44:13.668Z,10.27
2022-10-26T03:46:04.075Z,9.25
2022-10-26T03:47:54.323Z,8.82
2022-10-26T03:49:44.586Z,9.27
2022-10-26T03:51:35.429Z,9.10
2022-10-26T03:53:26.323Z,9.07
2022-10-26T03:55:18.190Z,7.57
2022-10-26T03:57:08.810Z,8.52
2022-10-26T03:58:59.582Z,8.82
2022-10-26T04:00:50.261Z,8.20
2022-10-26T04:02:40.867Z,8.55
2022-10-26T04:04:31.402Z,8.68
2022-10-26T04:06:21.969Z,8.48
2022-10-26T04:08:12.548Z,8.20
2022-10-26T04:10:03.499Z,8.02
2022-10-26T04:11:55.167Z,8.48
2022-10-26T04:13:45.719Z,8.80
2022-10-26T04:15:36.027Z,8.98
2022-10-26T04:17:26.494Z,8.18
2022-10-26T04:19:16.797Z,8.40
2022-10-26T04:21:07.370Z,8.45
2022-10-26T04:22:59.134Z,8.30
2022-10-26T04:24:49.748Z,8.32
2022-10-26T04:26:40.319Z,8.88
2022-10-26T04:28:31.904Z,8.80
2022-10-26T04:30:22.912Z,8.45
2022-10-26T04:32:13.604Z,7.75
2022-10-26T04:34:04.289Z,7.32
2022-10-26T04:35:59.137Z,8.25
2022-10-26T04:37:49.443Z,7.97
2022-10-26T04:39:39.675Z,8.15
2022-10-26T04:41:30.626Z,8.65
2022-10-26T04:43:21.235Z,7.03
2022-10-26T04:45:13.990Z,8.20
2022-10-26T04:47:04.684Z,8.38
2022-10-26T04:48:55.149Z,7.97
2022-10-26T04:50:45.866Z,7.68
2022-10-26T04:52:36.299Z,7.55
2022-10-26T04:54:26.636Z,7.80
2022-10-26T04:56:17.227Z,7.38
2022-10-26T04:58:07.483Z,9.38
2022-10-26T04:59:57.801Z,7.50
2022-10-26T05:01:49.903Z,7.88
2022-10-26T05:03:40.282Z,8.10
2022-10-26T05:05:32.308Z,8.25
2022-10-26T05:07:22.704Z,7.05
2022-10-26T05:09:12.999Z,7.63
2022-10-26T05:11:03.677Z,7.45
2022-10-26T05:12:54.777Z,7.28
2022-10-26T05:14:45.400Z,6.32
2022-10-26T05:16:36.338Z,7.95
2022-10-26T05:18:28.288Z,7.95
2022-10-26T05:20:18.631Z,7.40
2022-10-26T05:22:09.128Z,8.13
2022-10-26T05:23:59.575Z,7.35
2022-10-26T05:25:49.881Z,7.13
2022-10-26T05:27:40.169Z,7.80
2022-10-26T05:29:30.630Z,6.53
2022-10-26T05:31:21.149Z,6.68
2022-10-26T05:33:12.905Z,7.47
2022-10-26T05:35:05.578Z,7.20
2022-10-26T05:36:56.121Z,6.90
2022-10-26T05:38:46.908Z,7.43
2022-10-26T05:40:37.666Z,7.78
2022-10-26T05:42:28.185Z,6.93
2022-10-26T05:44:18.392Z,6.93
2022-10-26T05:46:08.640Z,6.63
2022-10-26T05:48:02.525Z,7.03
2022-10-26T05:49:54.083Z,6.40
2022-10-26T05:51:46.046Z,6.90
2022-10-26T05:53:36.328Z,6.53
2022-10-26T05:55:27.391Z,6.97
2022-10-26T05:57:18.195Z,6.40
2022-10-26T05:59:12.334Z,6.72
2022-10-26T06:01:11.144Z,6.40
2022-10-26T06:03:20.163Z,6.10
2022-10-26T06:05:11.012Z,5.93
2022-10-26T06:07:03.797Z,5.90
2022-10-26T06:08:54.712Z,6.72
2022-10-26T06:10:46.223Z,6.95
2022-10-26T06:12:37.010Z,6.70
2022-10-26T06:14:28.077Z,6.43
2022-10-26T06:16:31.094Z,7.07
2022-10-26T06:18:25.300Z,7.63
2022-10-26T06:20:26.996Z,6.35
2022-10-26T06:22:28.695Z,6.05
2022-10-26T06:24:24.656Z,6.60
2022-10-26T06:26:25.269Z,6.50
2022-10-26T06:28:26.025Z,6.35
2022-10-26T06:30:17.396Z,6.72
2022-10-26T06:32:08.415Z,7.43
2022-10-26T06:34:00.945Z,6.47
2022-10-26T06:35:56.240Z,6.15
2022-10-26T06:37:49.532Z,6.53
2022-10-26T06:39:43.399Z,6.45
2022-10-26T06:41:35.329Z,6.97
2022-10-26T06:43:27.401Z,6.25
2022-10-26T06:45:18.694Z,5.82
2022-10-26T06:47:14.678Z,6.32
2022-10-26T06:49:11.631Z,6.22
2022-10-26T06:51:02.489Z,5.85
2022-10-26T06:53:01.507Z,5.37
2022-10-26T06:54:53.530Z,6.05
2022-10-26T06:56:45.628Z,6.20
2022-10-26T06:58:36.778Z,5.80
2022-10-26T07:00:28.433Z,5.22
2022-10-26T07:02:19.266Z,4.90
2022-10-26T07:04:09.767Z,5.57
2022-10-26T07:06:00.231Z,5.75
2022-10-26T07:07:50.690Z,5.72
2022-10-26T07:09:42.850Z,5.15
2022-10-26T07:11:33.443Z,5.38
2022-10-26T07:13:23.988Z,5.53
2022-10-26T07:15:14.390Z,5.20
2022-10-26T07:17:05.623Z,5.53
2022-10-26T07:18:56.094Z,5.28
2022-10-26T07:20:49.541Z,5.13
2022-10-26T07:22:39.857Z,5.03
2022-10-26T07:24:44.302Z,5.47
2022-10-26T07:26:34.909Z,4.95
2022-10-26T07:28:25.362Z,5.15
2022-10-26T07:30:16.079Z,4.90
2022-10-26T07:32:07.024Z,4.97
2022-10-26T07:33:57.366Z,5.30
2022-10-26T07:35:48.001Z,4.63
2022-10-26T07:37:38.470Z,4.43
2022-10-26T07:39:28.938Z,4.60
2022-10-26T07:41:20.736Z,4.65
2022-10-26T07:43:11.231Z,4.47
2022-10-26T07:45:01.650Z,5.20
2022-10-26T07:46:52.313Z,4.43
2022-10-26T07:50:38.692Z,4.72
2022-10-26T07:52:29.187Z,4.38
2022-10-26T07:54:19.458Z,5.10
2022-10-26T07:56:10.308Z,4.50
2022-10-26T07:58:02.616Z,4.45
2022-10-26T07:59:52.897Z,4.10
2022-10-26T08:01:43.254Z,4.20
2022-10-26T08:03:34.052Z,4.10
2022-10-26T08:05:24.618Z,4.20
2022-10-26T08:07:14.879Z,4.30
2022-10-26T08:09:05.476Z,4.15
2022-10-26T08:10:56.253Z,4.47
2022-10-26T08:12:46.881Z,4.35
2022-10-26T08:14:38.700Z,3.53
2022-10-26T08:16:29.184Z,4.07
2022-10-26T08:18:19.511Z,4.72
2022-10-26T08:20:11.172Z,4.13
2022-10-26T08:22:01.810Z,5.15
2022-10-26T08:23:52.007Z,4.00
2022-10-26T08:25:42.307Z,3.83
2022-10-26T08:27:32.874Z,4.38
2022-10-26T08:29:23.256Z,3.55
2022-10-26T08:31:14.908Z,3.50
2022-10-26T08:33:07.362Z,3.75
2022-10-26T08:34:58.079Z,4.03
2022-10-26T08:36:48.492Z,3.90
2022-10-26T08:38:38.862Z,3.83
2022-10-26T08:40:31.730Z,3.72
2022-10-26T08:42:25.913Z,4.20
2022-10-26T08:44:27.426Z,3.72
2022-10-26T08:46:24.021Z,3.85
2022-10-26T08:48:16.859Z,3.72
2022-10-26T08:50:11.406Z,4.28
2022-10-26T08:52:03.050Z,3.70
2022-10-26T08:53:57.393Z,4.22
2022-10-26T08:55:51.841Z,4.10
2022-10-26T08:57:42.911Z,4.00
2022-10-26T08:59:37.370Z,4.85
2022-10-26T09:01:31.357Z,4.40
2022-10-26T09:03:21.935Z,4.15
2022-10-26T09:05:15.745Z,4.32
2022-10-26T09:07:09.404Z,4.32
2022-10-26T09:09:08.330Z,4.05
2022-10-26T09:11:05.954Z,4.50
2022-10-26T09:13:03.320Z,4.45
2022-10-26T09:15:02.655Z,3.58
2022-10-26T09:17:04.238Z,4.35
2022-10-26T09:19:04.596Z,3.78
2022-10-26T09:21:01.780Z,4.35
2022-10-26T09:22:57.880Z,3.75
2022-10-26T09:24:52.653Z,4.15
2022-10-26T09:26:53.680Z,3.78
2022-10-26T09:28:47.550Z,3.75
2022-10-26T09:30:38.495Z,3.83
2022-10-26T09:32:36.207Z,3.83
2022-10-26T09:34:31.679Z,3.80
2022-10-26T09:36:22.855Z,4.15
2022-10-26T09:38:15.824Z,3.50
2022-10-26T09:40:11.714Z,3.70
2022-10-26T09:42:06.659Z,4.38
2022-10-26T09:44:01.921Z,4.18
2022-10-26T09:45:53.575Z,3.47
2022-10-26T09:47:47.913Z,3.65
2022-10-26T09:49:42.758Z,3.53
2022-10-26T09:51:34.163Z,4.28
2022-10-26T09:53:24.882Z,4.05
2022-10-26T09:55:15.861Z,4.13
2022-10-26T09:57:07.982Z,3.25
2022-10-26T09:59:02.060Z,3.70
2022-10-26T10:00:53.167Z,3.78
2022-10-26T10:02:45.725Z,3.80
2022-10-26T10:04:35.967Z,3.70
2022-10-26T10:06:26.543Z,3.90
2022-10-26T10:08:19.231Z,3.80
2022-10-26T10:10:16.231Z,4.32
2022-10-26T10:12:17.287Z,4.30
2022-10-26T10:14:08.883Z,3.70
2022-10-26T10:16:08.322Z,3.95
2022-10-26T10:18:00.380Z,4.30
2022-10-26T10:19:51.731Z,3.60
2022-10-26T10:21:45.606Z,4.40
2022-10-26T10:23:37.530Z,4.43
2022-10-26T10:25:35.959Z,3.92
2022-10-26T10:27:28.511Z,4.50
2022-10-26T10:29:18.724Z,3.42
2022-10-26T10:31:20.247Z,4.32
2022-10-26T10:33:12.527Z,3.83
2022-10-26T10:35:04.327Z,4.22
2022-10-26T10:36:54.901Z,5.05
2022-10-26T10:38:46.640Z,3.90
2022-10-26T10:40:37.140Z,3.28
2022-10-26T10:42:30.748Z,3.67
2022-10-26T10:44:25.300Z,3.65
2022-10-26T10:46:21.257Z,3.90
2022-10-26T10:48:17.979Z,3.70
2022-10-26T10:50:16.984Z,3.70
2022-10-26T10:52:07.628Z,3.30
2022-10-26T10:53:57.961Z,3.83
2022-10-26T10:55:59.045Z,4.13
2022-10-26T10:58:01.144Z,3.65
2022-10-26T10:59:59.405Z,4.25
2022-10-26T11:01:54.800Z,3.42
2022-10-26T11:04:00.950Z,3.88
2022-10-26T11:06:04.591Z,3.53
2022-10-26T11:08:01.310Z,4.30
2022-10-26T11:11:51.722Z,3.50
2022-10-26T11:13:48.692Z,3.90
2022-10-26T11:15:40.135Z,3.58
2022-10-26T11:17:31.776Z,4.25
2022-10-26T11:19:26.035Z,3.67
2022-10-26T11:21:23.567Z,3.97
2022-10-26T11:23:17.562Z,4.40
2022-10-26T11:25:13.533Z,3.17
2022-10-26T11:27:09.072Z,3.72
2022-10-26T11:29:02.628Z,3.10
2022-10-26T11:30:59.112Z,3.10
2022-10-26T11:32:53.285Z,2.80
2022-10-26T11:34:52.241Z,2.78
2022-10-26T11:36:46.075Z,2.80
2022-10-26T11:38:46.085Z,2.90
2022-10-26T11:40:50.078Z,3.20
2022-10-26T11:42:42.585Z,3.28
2022-10-26T11:44:38.149Z,3.03
2022-10-26T11:46:31.686Z,2.95
2022-10-26T11:48:24.627Z,3.17
2022-10-26T11:50:20.087Z,3.47
2022-10-26T11:52:13.801Z,3.20
2022-10-26T11:54:09.054Z,3.05
2022-10-26T11:55:59.672Z,3.72
2022-10-26T11:57:51.408Z,3.53
2022-10-26T11:59:45.777Z,3.20
2022-10-26T12:01:36.230Z,3.25
2022-10-26T12:03:31.769Z,2.92
2022-10-26T12:05:32.712Z,3.90
2022-10-26T12:07:26.959Z,3.28
2022-10-26T12:09:20.325Z,3.67
2022-10-26T12:11:20.447Z,3.15
2022-10-26T12:13:18.221Z,3.33
2022-10-26T12:15:17.739Z,3.38
2022-10-26T12:17:12.982Z,3.22
2022-10-26T12:19:06.759Z,3.70
2022-10-26T12:21:00.652Z,3.10
2022-10-26T12:22:53.142Z,3.30
2022-10-26T12:24:45.256Z,3.45
2022-10-26T12:26:53.771Z,3.17
2022-10-26T12:28:44.574Z,3.80
2022-10-26T12:30:35.268Z,3.50
2022-10-26T12:32:51.637Z,2.92
2022-10-26T12:35:03.998Z,2.95
2022-10-26T12:37:22.257Z,3.03
2022-10-26T12:39:28.408Z,3.20
2022-10-26T12:41:23.952Z,3.17
2022-10-26T12:43:34.673Z,2.92
2022-10-26T12:45:25.394Z,3.65
2022-10-26T12:47:49.360Z,3.22
2022-10-26T12:49:58.679Z,3.03
2022-10-26T12:51:49.281Z,2.90
2022-10-26T12:53:43.988Z,2.90
2022-10-26T12:55:59.179Z,3.00
2022-10-26T12:58:00.242Z,2.75
2022-10-26T12:59:55.238Z,3.20
2022-10-26T13:02:03.832Z,3.50
2022-10-26T13:04:09.049Z,2.90
2022-10-26T13:06:23.355Z,2.58
2022-10-26T13:08:14.473Z,2.50
2022-10-26T13:10:16.865Z,2.95
2022-10-26T13:13:59.126Z,2.88
2022-10-26T13:15:53.744Z,2.70
2022-10-26T13:17:53.857Z,2.25
2022-10-26T13:19:45.456Z,2.55
2022-10-26T13:21:45.522Z,2.30
2022-10-26T13:23:39.945Z,2.25
2022-10-26T13:25:31.909Z,2.30
2022-10-26T13:29:16.421Z,2.63
2022-10-26T13:31:14.189Z,2.75
2022-10-26T13:33:10.469Z,2.65
2022-10-26T13:35:02.450Z,2.33
2022-10-26T13:37:05.755Z,2.80
2022-10-26T13:38:58.714Z,3.00
2022-10-26T13:40:52.375Z,3.25
2022-10-26T13:42:45.653Z,2.13
2022-10-26T13:44:41.616Z,2.70
2022-10-26T13:46:36.361Z,2.55
2022-10-26T13:48:36.366Z,2.95
2022-10-26T13:50:32.084Z,2.38
2022-10-26T13:52:28.847Z,2.40
2022-10-26T13:54:23.892Z,2.70
2022-10-26T13:56:24.011Z,3.03
2022-10-26T13:58:25.179Z,2.53
2022-10-26T14:00:19.482Z,2.28
2022-10-26T14:02:17.113Z,2.30
2022-10-26T14:04:17.441Z,2.53
2022-10-26T14:06:15.282Z,2.53
2022-10-26T14:08:06.457Z,2.42
2022-10-26T14:09:58.120Z,2.63
2022-10-26T14:11:52.227Z,2.53
2022-10-26T14:13:43.004Z,2.60
2022-10-26T14:15:34.135Z,2.53
2022-10-26T14:17:26.027Z,2.90
2022-10-26T14:19:20.353Z,3.83
2022-10-26T14:21:14.505Z,3.13
2022-10-26T14:23:05.118Z,2.67
2022-10-26T14:24:57.005Z,2.40
2022-10-26T14:26:47.395Z,2.95
2022-10-26T14:28:46.028Z,2.47
2022-10-26T14:30:38.960Z,2.90
2022-10-26T14:32:31.275Z,2.33
2022-10-26T14:34:21.982Z,2.40
2022-10-26T14:36:12.879Z,2.63
2022-10-26T14:38:04.332Z,2.53
2022-10-26T14:39:54.598Z,2.10
2022-10-26T14:41:45.556Z,2.30
2022-10-26T14:43:36.253Z,2.10
2022-10-26T14:45:49.762Z,2.85
2022-10-26T14:47:44.176Z,2.50
2022-10-26T14:49:34.435Z,2.50
2022-10-26T14:51:29.591Z,2.20
2022-10-26T14:53:20.316Z,2.35
2022-10-26T14:55:14.796Z,2.30
2022-10-26T14:57:05.451Z,2.67
2022-10-26T14:58:56.803Z,2.83
2022-10-26T15:00:48.704Z,2.70
2022-10-26T15:04:34.923Z,2.28
2022-10-26T15:06:40.489Z,2.00
2022-10-26T15:08:52.229Z,2.33
2022-10-26T15:10:47.954Z,2.25
2022-10-26T15:12:39.214Z,2.60
2022-10-26T15:14:29.723Z,2.28
2022-10-26T15:16:22.903Z,2.90
2022-10-26T15:18:20.471Z,2.17
2022-10-26T15:20:16.368Z,1.70
2022-10-26T15:22:15.779Z,2.42
2022-10-26T15:24:21.228Z,2.20
2022-10-26T15:26:11.950Z,2.90
2022-10-26T15:28:21.426Z,2.25
2022-10-26T15:30:19.321Z,2.33
2022-10-26T15:32:29.387Z,2.45
2022-10-26T15:34:23.435Z,2.25
2022-10-26T15:36:15.344Z,2.42
2022-10-26T15:38:10.334Z,2.25
2022-10-26T15:40:00.926Z,2.10
2022-10-26T15:41:51.570Z,2.22
2022-10-26T15:43:42.131Z,2.80
2022-10-26T15:45:34.117Z,2.47
2022-10-26T15:47:29.692Z,2.30
2022-10-26T15:49:21.371Z,2.53
2022-10-26T15:51:13.099Z,2.13
2022-10-26T15:53:08.681Z,2.40
2022-10-26T15:55:01.895Z,2.38
2022-10-26T15:56:54.914Z,3.00
2022-10-26T15:58:45.807Z,2.40
2022-10-26T16:00:36.235Z,2.17
2022-10-26T16:02:28.313Z,2.15
2022-10-26T16:04:18.653Z,2.60
2022-10-26T16:06:15.052Z,2.20
2022-10-26T16:08:05.571Z,2.88
2022-10-26T16:09:56.387Z,4.63
2022-10-26T16:11:47.156Z,2.53
2022-10-26T16:13:38.228Z,2.00
2022-10-26T16:15:28.603Z,2.28
2022-10-26T16:17:18.939Z,2.15
2022-10-26T16:19:29.793Z,2.78
2022-10-26T16:21:22.371Z,2.83
2022-10-26T16:23:12.727Z,2.90
2022-10-26T16:25:03.531Z,3.30
2022-10-26T16:26:54.308Z,2.83
2022-10-26T16:28:44.575Z,2.22
2022-10-26T16:30:34.881Z,2.60
2022-10-26T16:32:25.197Z,2.83
2022-10-26T16:34:17.189Z,1.92
2022-10-26T16:36:09.591Z,2.78
2022-10-26T16:38:00.085Z,3.33
2022-10-26T16:39:50.541Z,3.50
2022-10-26T16:41:41.220Z,3.80
2022-10-26T16:43:31.916Z,4.10
2022-10-26T16:45:22.555Z,2.88
2022-10-26T16:47:12.929Z,2.95
2022-10-26T16:49:03.107Z,2.60
2022-10-26T16:50:54.839Z,2.67
2022-10-26T16:52:45.353Z,2.67
2022-10-26T16:54:35.755Z,2.67
2022-10-26T16:56:28.223Z,2.50
2022-10-26T17:00:09.734Z,3.00
2022-10-26T17:02:00.377Z,3.33
2022-10-26T17:03:51.874Z,2.58
2022-10-26T17:05:42.876Z,3.00
2022-10-26T17:07:34.579Z,3.10
2022-10-26T17:09:25.254Z,2.97
2022-10-26T17:11:16.800Z,2.58
2022-10-26T17:13:07.425Z,2.72
2022-10-26T17:14:58.026Z,2.78
2022-10-26T17:16:48.572Z,2.58
2022-10-26T17:18:39.830Z,2.78
2022-10-26T17:20:30.189Z,3.50
2022-10-26T17:22:20.617Z,4.38
2022-10-26T17:24:12.418Z,3.67
2022-10-26T17:27:53.923Z,4.70
2022-10-26T17:29:44.762Z,3.28
2022-10-26T17:31:35.230Z,4.75
2022-10-26T17:33:26.179Z,4.43
2022-10-26T17:35:16.949Z,4.53
2022-10-26T17:37:07.467Z,4.35
2022-10-26T17:38:58.109Z,4.43
2022-10-26T17:40:49.958Z,4.20
2022-10-26T17:42:40.513Z,5.05
2022-10-26T17:44:30.971Z,4.53
2022-10-26T17:46:23.196Z,3.17
2022-10-26T17:50:04.996Z,4.68
2022-10-26T17:51:55.510Z,4.55
2022-10-26T17:53:47.303Z,3.60
2022-10-26T17:55:37.777Z,4.45
2022-10-26T17:57:29.779Z,3.45
2022-10-26T17:59:20.302Z,3.10
2022-10-26T18:01:12.495Z,4.40
2022-10-26T18:04:53.395Z,3.83
2022-10-26T18:06:44.188Z,4.38
2022-10-26T18:08:35.211Z,3.80
2022-10-26T18:10:37.383Z,5.93
2022-10-26T18:12:30.405Z,5.80
2022-10-26T18:14:21.190Z,4.95
2022-10-26T18:16:14.180Z,5.40
2022-10-26T18:18:04.777Z,4.95
2022-10-26T18:19:55.328Z,4.78
2022-10-26T18:21:46.059Z,4.47
2022-10-26T18:23:36.937Z,4.68
2022-10-26T18:25:27.757Z,3.50
2022-10-26T18:27:18.261Z,3.28
2022-10-26T18:29:10.695Z,4.45
2022-10-26T18:31:02.645Z,4.40
2022-10-26T18:34:44.021Z,3.30
2022-10-26T18:36:34.841Z,2.60
2022-10-26T18:38:25.281Z,3.20
2022-10-26T18:40:15.580Z,2.85
2022-10-26T18:42:06.152Z,3.05
2022-10-26T18:43:56.831Z,2.53
2022-10-26T18:45:48.875Z,3.20
2022-10-26T18:47:39.311Z,2.75
2022-10-26T18:49:29.643Z,2.55
2022-10-26T18:51:21.831Z,2.92
2022-10-26T18:53:12.414Z,2.67
2022-10-26T18:55:03.311Z,2.50
2022-10-26T18:56:53.688Z,2.85
2022-10-26T18:58:45.577Z,2.53
2022-10-26T19:00:36.786Z,2.88
2022-10-26T19:02:28.743Z,4.40
2022-10-26T19:04:19.484Z,3.05
2022-10-26T19:06:12.472Z,2.15
2022-10-26T19:08:03.767Z,2.80
2022-10-26T19:09:53.956Z,2.33
2022-10-26T19:11:45.200Z,2.47
2022-10-26T19:13:35.567Z,2.38
2022-10-26T19:15:25.703Z,2.53
2022-10-26T19:17:16.002Z,2.75
2022-10-26T19:19:07.669Z,2.42
2022-10-26T19:20:58.902Z,3.47
2022-10-26T19:22:52.755Z,2.70
2022-10-26T19:24:43.422Z,2.30
2022-10-26T19:26:36.771Z,2.85
2022-10-26T19:28:28.852Z,2.97
2022-10-26T19:30:19.411Z,3.03
2022-10-26T19:32:09.793Z,3.22
2022-10-26T19:34:00.566Z,3.38
2022-10-26T19:35:53.138Z,2.70
2022-10-26T19:37:43.435Z,2.60
2022-10-26T19:39:33.860Z,3.22
2022-10-26T19:41:24.948Z,3.05
2022-10-26T19:43:15.652Z,3.10
2022-10-26T19:45:07.473Z,2.90
2022-10-26T19:46:58.062Z,2.97
2022-10-26T19:48:49.263Z,3.28
2022-10-26T19:50:39.989Z,2.90
2022-10-26T19:52:31.741Z,2.85
2022-10-26T19:54:22.298Z,3.00
2022-10-26T19:56:13.525Z,3.47
2022-10-26T19:58:04.005Z,3.40
2022-10-26T19:59:54.355Z,3.42
2022-10-26T20:01:44.725Z,4.53
2022-10-26T20:03:35.175Z,3.72
2022-10-26T20:05:25.909Z,3.40
2022-10-26T20:07:19.334Z,3.88
2022-10-26T20:09:11.261Z,4.00
2022-10-26T20:11:02.103Z,3.80
2022-10-26T20:12:52.980Z,3.70
2022-10-26T20:14:43.557Z,4.13
2022-10-26T20:16:34.492Z,3.63
2022-10-26T20:18:24.849Z,3.92
2022-10-26T20:20:15.618Z,4.68
2022-10-26T20:22:06.602Z,3.40
2022-10-26T20:23:56.892Z,3.97
2022-10-26T20:25:49.937Z,4.28
2022-10-26T20:27:40.723Z,3.25
2022-10-26T20:29:30.959Z,3.70
2022-10-26T20:31:21.446Z,3.67
2022-10-26T20:33:12.246Z,4.00
2022-10-26T20:35:02.687Z,3.60
2022-10-26T20:36:52.782Z,3.50
2022-10-26T20:38:43.704Z,3.47
2022-10-26T20:40:34.986Z,4.07
2022-10-26T20:42:28.137Z,3.85
2022-10-26T20:44:22.741Z,4.03
2022-10-26T20:46:21.688Z,4.10
2022-10-26T20:48:13.134Z,4.63
2022-10-26T20:50:04.605Z,4.30
2022-10-26T20:52:19.529Z,4.22
2022-10-26T20:54:15.527Z,4.68
2022-10-26T20:56:08.171Z,4.10
2022-10-26T20:59:52.854Z,4.13
2022-10-26T21:01:43.349Z,3.80
2022-10-26T21:03:34.367Z,3.95
2022-10-26T21:05:25.288Z,4.13
2022-10-26T21:07:15.871Z,3.78
2022-10-26T21:09:09.073Z,3.40
2022-10-26T21:10:59.811Z,4.10
2022-10-26T21:12:51.724Z,3.53
2022-10-26T21:14:44.571Z,3.95
2022-10-26T21:18:25.806Z,3.97
2022-10-26T21:20:16.703Z,3.55
2022-10-26T21:22:07.805Z,3.47
2022-10-26T21:23:58.436Z,3.72
2022-10-26T21:25:49.425Z,4.15
2022-10-26T21:27:39.979Z,4.45
2022-10-26T21:29:30.639Z,4.05
2022-10-26T21:31:22.595Z,4.43
2022-10-26T21:35:03.951Z,5.22
2022-10-26T21:36:54.677Z,5.65
2022-10-26T21:38:45.859Z,5.43
2022-10-26T21:40:36.621Z,4.37
2022-10-26T21:42:27.120Z,5.20
2022-10-26T21:44:40.596Z,3.90
2022-10-26T21:46:29.715Z,4.65
2022-10-26T21:48:20.476Z,4.63
2022-10-26T21:50:10.970Z,5.30
2022-10-26T21:52:01.288Z,5.18
2022-10-26T21:53:51.959Z,4.35
2022-10-26T21:55:42.460Z,4.53
2022-10-26T21:57:33.149Z,4.40
2022-10-26T21:59:23.726Z,4.57
2022-10-26T22:01:15.533Z,4.68
2022-10-26T22:03:07.357Z,4.95
2022-10-26T22:04:57.895Z,4.20
2022-10-26T22:06:48.404Z,4.05
2022-10-26T22:08:39.581Z,4.30
2022-10-26T22:10:30.077Z,4.47
2022-10-26T22:12:20.514Z,3.83
2022-10-26T22:14:11.463Z,3.72
2022-10-26T22:16:03.570Z,3.45
2022-10-26T22:17:53.900Z,3.53
2022-10-26T22:19:45.550Z,2.70
2022-10-26T22:21:38.404Z,3.00
2022-10-26T22:23:29.328Z,2.90
2022-10-26T22:25:19.811Z,3.00
2022-10-26T22:27:10.433Z,3.10
2022-10-26T22:29:01.108Z,3.88
2022-10-26T22:30:51.448Z,3.40
2022-10-26T22:32:41.943Z,3.38
2022-10-26T22:34:32.301Z,2.80
2022-10-26T22:36:25.381Z,3.25
2022-10-26T22:38:15.852Z,2.97
2022-10-26T22:40:07.025Z,3.40
2022-10-26T22:41:57.390Z,3.20
2022-10-26T22:43:48.409Z,3.13
2022-10-26T22:45:39.028Z,3.83
2022-10-26T22:47:29.576Z,3.20
2022-10-26T22:49:20.002Z,3.13
2022-10-26T22:51:11.766Z,3.20
2022-10-26T22:53:03.383Z,3.03
2022-10-26T22:54:53.526Z,2.92
2022-10-26T22:56:43.783Z,2.67
2022-10-26T22:58:34.633Z,3.30
2022-10-26T23:00:24.989Z,3.33
2022-10-26T23:02:15.499Z,3.40
2022-10-26T23:04:06.052Z,3.22
2022-10-26T23:05:56.649Z,3.33
2022-10-26T23:07:47.383Z,3.47
2022-10-26T23:09:39.131Z,3.20
2022-10-26T23:11:29.907Z,3.10
2022-10-26T23:13:20.615Z,3.13
2022-10-26T23:15:11.248Z,3.70
2022-10-26T23:17:01.662Z,3.60
2022-10-26T23:18:52.194Z,3.45
2022-10-26T23:20:42.702Z,3.60
2022-10-26T23:22:33.045Z,3.25
2022-10-26T23:24:23.529Z,3.53
2022-10-26T23:26:17.246Z,3.50
2022-10-26T23:28:07.853Z,3.55
2022-10-26T23:29:58.215Z,3.22
2022-10-26T23:31:48.958Z,4.10
2022-10-26T23:33:39.138Z,3.38
2022-10-26T23:35:29.727Z,3.85
2022-10-26T23:37:20.194Z,4.50
2022-10-26T23:39:10.977Z,3.75
2022-10-26T23:41:01.471Z,3.63
2022-10-26T23:42:53.732Z,3.97
2022-10-26T23:46:34.846Z,3.95
2022-10-26T23:48:25.266Z,4.63
2022-10-26T23:50:15.700Z,3.85
2022-10-26T23:52:06.435Z,4.07
2022-10-26T23:53:57.065Z,4.00
2022-10-26T23:55:47.973Z,4.63
2022-10-26T23:57:39.458Z,4.35
2022-10-26T23:59:31.015Z,5.10
